Blaine Lake, Canada
Current Conditions -  °F | °C
As of 9:00 AM on Sunday 21 Dec 2014 (Local Time) from CYXE Reporting Station
Haze Haze  
Wind Chill:   Ceiling: 200
Heat Index: 19°   Visibility: 1mi
Dew Point: 18°   Wind: 9mph
Humidity: 93%   Direction: 90°E
Pressure: 29.41"   Gusts: NA
Location:  52.83°N, 106.88°W
Report Text: CYXE 211500Z 09008KT 1SM R09/P6000FT/D BR VV002 M07/M08 A2941 RMK FG8 SLP990
Loading
Personal Weather Stations






























Interactive Weather Map New forecast layout! Learn more

10-Day Weather Forecast

Advertisements
Track Severe Weather on mobile